createdAt,value
2018-12-16T00:01:11.603Z,-0.50
2018-12-16T00:03:39.733Z,-0.60
2018-12-16T00:06:07.878Z,-0.60
2018-12-16T00:08:35.989Z,-0.60
2018-12-16T00:11:04.122Z,-0.50
2018-12-16T00:13:32.226Z,-0.40
2018-12-16T00:16:00.375Z,-0.40
2018-12-16T00:18:28.471Z,-0.40
2018-12-16T00:20:56.584Z,-0.40
2018-12-16T00:23:24.804Z,-0.40
2018-12-16T00:25:52.938Z,-0.50
2018-12-16T00:28:21.097Z,-0.60
2018-12-16T00:30:49.234Z,-0.70
2018-12-16T00:33:17.369Z,-0.70
2018-12-16T00:35:45.479Z,-0.60
2018-12-16T00:38:13.604Z,-0.70
2018-12-16T00:40:41.723Z,-0.80
2018-12-16T00:43:09.880Z,-0.90
2018-12-16T00:45:38.112Z,-0.80
2018-12-16T00:48:06.215Z,-0.80
2018-12-16T00:50:34.324Z,-1.00
2018-12-16T00:53:02.484Z,-1.10
2018-12-16T00:55:30.607Z,-1.10
2018-12-16T00:57:58.707Z,-1.10
2018-12-16T01:00:26.833Z,-1.10
2018-12-16T01:02:54.956Z,-1.30
2018-12-16T01:05:23.099Z,-1.40
2018-12-16T01:07:51.256Z,-1.40
2018-12-16T01:10:19.389Z,-1.40
2018-12-16T01:12:47.502Z,-1.40
2018-12-16T01:15:15.634Z,-1.40
2018-12-16T01:17:43.744Z,-1.30
2018-12-16T01:20:11.925Z,-1.30
2018-12-16T01:22:43.421Z,-1.20
2018-12-16T01:25:10.262Z,-1.00
2018-12-16T01:27:38.420Z,-1.00
2018-12-16T01:30:06.757Z,-1.00
2018-12-16T01:32:34.862Z,-0.90
2018-12-16T01:35:03.244Z,-0.90
2018-12-16T01:37:31.392Z,-1.00
2018-12-16T01:39:59.551Z,-1.00
2018-12-16T01:42:27.700Z,-1.10
2018-12-16T01:44:55.830Z,-1.00
2018-12-16T01:47:23.965Z,-1.00
2018-12-16T01:49:52.072Z,-1.00
2018-12-16T01:52:20.296Z,-1.10
2018-12-16T01:54:48.426Z,-1.10
2018-12-16T01:57:16.542Z,-1.00
2018-12-16T01:59:44.696Z,-1.10
2018-12-16T02:02:12.832Z,-1.00
2018-12-16T02:04:40.988Z,-1.00
2018-12-16T02:07:09.094Z,-1.00
2018-12-16T02:09:37.257Z,-1.00
2018-12-16T02:12:05.552Z,-1.00
2018-12-16T02:14:33.731Z,-1.00
2018-12-16T02:17:01.849Z,-1.00
2018-12-16T02:19:29.980Z,-1.00
2018-12-16T02:21:58.224Z,-1.10
2018-12-16T02:24:26.323Z,-1.10
2018-12-16T02:26:54.467Z,-1.10
2018-12-16T02:29:22.597Z,-1.00
2018-12-16T02:31:50.803Z,-1.00
2018-12-16T02:34:18.904Z,-1.00
2018-12-16T02:36:47.013Z,-1.00
2018-12-16T02:39:15.238Z,-1.00
2018-12-16T02:41:43.373Z,-0.90
2018-12-16T02:44:11.651Z,-0.90
2018-12-16T02:46:39.762Z,-0.80
2018-12-16T02:49:07.880Z,-0.80
2018-12-16T02:51:36.062Z,-0.80
2018-12-16T02:54:04.268Z,-0.80
2018-12-16T02:56:32.407Z,-0.80
2018-12-16T02:59:00.521Z,-0.70
2018-12-16T03:01:28.656Z,-0.80
2018-12-16T03:03:56.788Z,-0.80
2018-12-16T03:06:24.944Z,-0.80
2018-12-16T03:08:53.066Z,-0.90
2018-12-16T03:11:21.213Z,-0.80
2018-12-16T03:13:49.375Z,-0.80
2018-12-16T03:16:17.485Z,-0.80
2018-12-16T03:18:45.646Z,-0.80
2018-12-16T03:21:13.759Z,-0.90
2018-12-16T03:23:41.916Z,-0.90
2018-12-16T03:26:10.021Z,-1.00
2018-12-16T03:28:38.273Z,-1.00
2018-12-16T03:31:06.393Z,-1.10
2018-12-16T03:33:34.505Z,-1.10
2018-12-16T03:36:02.684Z,-1.10
2018-12-16T03:38:30.920Z,-1.10
2018-12-16T03:40:59.044Z,-1.20
2018-12-16T03:43:27.145Z,-1.10
2018-12-16T03:45:55.402Z,-1.10
2018-12-16T03:48:23.562Z,-1.10
2018-12-16T03:50:51.692Z,-1.00
2018-12-16T03:53:20.451Z,-1.00
2018-12-16T03:55:48.701Z,-1.10
2018-12-16T03:58:16.821Z,-1.00
2018-12-16T04:00:44.992Z,-0.90
2018-12-16T04:03:13.158Z,-0.90
2018-12-16T04:05:41.284Z,-0.90
2018-12-16T04:08:09.425Z,-0.90
2018-12-16T04:10:37.562Z,-0.90
2018-12-16T04:13:05.702Z,-0.80
2018-12-16T04:15:33.821Z,-0.80
2018-12-16T04:18:01.966Z,-0.80
2018-12-16T04:20:30.099Z,-0.80
2018-12-16T04:22:58.379Z,-0.80
2018-12-16T04:25:26.500Z,-0.80
2018-12-16T04:27:54.623Z,-0.80
2018-12-16T04:30:22.805Z,-0.90
2018-12-16T04:32:51.263Z,-0.90
2018-12-16T04:35:19.370Z,-0.70
2018-12-16T04:37:47.482Z,-0.80
2018-12-16T04:40:15.646Z,-0.80
2018-12-16T04:42:43.776Z,-0.80
2018-12-16T04:45:11.918Z,-0.80
2018-12-16T04:47:40.042Z,-0.60
2018-12-16T04:50:08.427Z,-0.60
2018-12-16T04:52:36.538Z,-0.50
2018-12-16T04:55:04.960Z,-0.50
2018-12-16T04:57:33.081Z,-0.50
2018-12-16T05:00:01.258Z,-0.40
2018-12-16T05:02:29.375Z,-0.40
2018-12-16T05:04:57.514Z,-0.40
2018-12-16T05:07:25.659Z,-0.30
2018-12-16T05:09:53.802Z,-0.40
2018-12-16T05:12:21.950Z,-0.40
2018-12-16T05:14:50.097Z,-0.40
2018-12-16T05:17:18.282Z,-0.40
2018-12-16T05:19:46.417Z,-0.40
2018-12-16T05:22:14.561Z,-0.40
2018-12-16T05:24:42.733Z,-0.50
2018-12-16T05:27:10.853Z,-0.40
2018-12-16T05:29:38.994Z,-0.40
2018-12-16T05:32:07.131Z,-0.40
2018-12-16T05:34:35.269Z,-0.50
2018-12-16T05:37:03.415Z,-0.50
2018-12-16T05:39:31.545Z,-0.50
2018-12-16T05:41:59.693Z,-0.40
2018-12-16T05:44:27.809Z,-0.50
2018-12-16T05:46:55.954Z,-0.50
2018-12-16T05:49:24.093Z,-0.50
2018-12-16T05:51:52.261Z,-0.50
2018-12-16T05:54:20.375Z,-0.40
2018-12-16T05:56:48.516Z,-0.40
2018-12-16T05:59:16.677Z,-0.40
2018-12-16T06:01:44.807Z,-0.40
2018-12-16T06:04:12.945Z,-0.40
2018-12-16T06:06:41.141Z,-0.50
2018-12-16T06:09:09.288Z,-0.50
2018-12-16T06:11:37.442Z,-0.50
2018-12-16T06:14:05.613Z,-0.40
2018-12-16T06:16:33.720Z,-0.40
2018-12-16T06:19:01.838Z,-0.40
2018-12-16T06:21:30.358Z,-0.40
2018-12-16T06:23:58.499Z,-0.40
2018-12-16T06:26:26.617Z,-0.50
2018-12-16T06:28:54.772Z,-0.50
2018-12-16T06:31:23.282Z,-0.40
2018-12-16T06:33:51.392Z,-0.40
2018-12-16T06:36:19.509Z,-0.40
2018-12-16T06:38:47.642Z,-0.40
2018-12-16T06:41:15.849Z,-0.50
2018-12-16T06:43:43.990Z,-0.50
2018-12-16T06:46:12.138Z,-0.50
2018-12-16T06:48:40.297Z,-0.50
2018-12-16T06:51:08.437Z,-0.40
2018-12-16T06:53:36.586Z,-0.50
2018-12-16T06:56:06.781Z,-0.40
2018-12-16T06:58:34.921Z,-0.40
2018-12-16T07:01:03.034Z,-0.40
2018-12-16T07:03:31.180Z,-0.40
2018-12-16T07:05:59.354Z,-0.40
2018-12-16T07:08:27.464Z,-0.40
2018-12-16T07:10:55.911Z,-0.40
2018-12-16T07:13:24.042Z,-0.40
2018-12-16T07:15:52.202Z,-0.30
2018-12-16T07:18:20.371Z,-0.40
2018-12-16T07:20:48.525Z,-0.40
2018-12-16T07:23:16.677Z,-0.40
2018-12-16T07:25:44.804Z,-0.40
2018-12-16T07:28:12.963Z,-0.40
2018-12-16T07:30:41.111Z,-0.40
2018-12-16T07:33:09.349Z,-0.40
2018-12-16T07:35:37.601Z,-0.30
2018-12-16T07:38:05.854Z,-0.20
2018-12-16T07:40:34.026Z,-0.30
2018-12-16T07:43:02.139Z,-0.30
2018-12-16T07:45:30.284Z,-0.30
2018-12-16T07:47:58.426Z,-0.30
2018-12-16T07:50:26.588Z,-0.30
2018-12-16T07:52:55.054Z,-0.30
2018-12-16T07:55:23.250Z,-0.20
2018-12-16T07:57:51.509Z,-0.20
2018-12-16T08:00:19.742Z,-0.20
2018-12-16T08:02:47.936Z,-0.10
2018-12-16T08:05:16.085Z,-0.10
2018-12-16T08:07:44.224Z,0.00
2018-12-16T08:10:12.353Z,0.00
2018-12-16T08:12:40.505Z,0.10
2018-12-16T08:15:08.793Z,0.10
2018-12-16T08:17:36.913Z,0.10
2018-12-16T08:20:06.479Z,0.10
2018-12-16T08:22:34.602Z,0.10
2018-12-16T08:25:02.717Z,0.20
2018-12-16T08:27:30.845Z,0.20
2018-12-16T08:29:58.957Z,0.20
2018-12-16T08:32:27.085Z,0.20
2018-12-16T08:34:55.193Z,0.20
2018-12-16T08:37:23.689Z,0.20
2018-12-16T08:39:51.826Z,0.30
2018-12-16T08:42:19.961Z,0.30
2018-12-16T08:44:48.202Z,0.30
2018-12-16T08:47:16.343Z,0.30
2018-12-16T08:49:44.577Z,0.40
2018-12-16T08:52:13.668Z,0.40
2018-12-16T08:54:41.836Z,0.40
2018-12-16T08:57:09.945Z,0.40
2018-12-16T08:59:38.082Z,0.40
2018-12-16T09:02:06.296Z,0.30
2018-12-16T09:04:34.457Z,0.30
2018-12-16T09:07:02.724Z,0.30
2018-12-16T09:09:31.331Z,0.40
2018-12-16T09:11:59.491Z,0.40
2018-12-16T09:14:27.626Z,0.40
2018-12-16T09:16:55.785Z,0.40
2018-12-16T09:19:23.926Z,0.40
2018-12-16T09:21:52.071Z,0.50
2018-12-16T09:24:20.211Z,0.40
2018-12-16T09:26:48.370Z,0.40
2018-12-16T09:29:16.486Z,0.50
2018-12-16T09:31:44.629Z,0.50
2018-12-16T09:34:12.877Z,0.50
2018-12-16T09:36:40.986Z,0.40
2018-12-16T09:39:09.103Z,0.40
2018-12-16T09:41:37.233Z,0.40
2018-12-16T09:44:05.343Z,0.50
2018-12-16T09:46:33.489Z,0.50
2018-12-16T09:49:01.596Z,0.50
2018-12-16T09:51:29.829Z,0.50
2018-12-16T09:53:57.984Z,0.50
2018-12-16T09:56:26.125Z,0.50
2018-12-16T09:58:54.261Z,0.50
2018-12-16T10:01:22.459Z,0.50
2018-12-16T10:03:50.584Z,0.40
2018-12-16T10:06:18.722Z,0.40
2018-12-16T10:08:46.887Z,0.40
2018-12-16T10:11:14.988Z,0.40
2018-12-16T10:13:43.125Z,0.40
2018-12-16T10:16:11.364Z,0.30
2018-12-16T10:18:40.708Z,0.40
2018-12-16T10:21:08.847Z,0.50
2018-12-16T10:23:37.126Z,0.50
2018-12-16T10:26:05.306Z,0.60
2018-12-16T10:28:33.423Z,0.50
2018-12-16T10:31:01.562Z,0.40
2018-12-16T10:33:30.702Z,0.40
2018-12-16T10:35:58.842Z,0.30
2018-12-16T10:38:26.954Z,0.40
2018-12-16T10:40:55.110Z,0.30
2018-12-16T10:43:23.240Z,0.30
2018-12-16T10:45:51.393Z,0.30
2018-12-16T10:48:19.561Z,0.20
2018-12-16T10:50:47.698Z,0.20
2018-12-16T10:53:15.837Z,0.10
2018-12-16T10:55:44.344Z,0.00
2018-12-16T10:58:12.458Z,0.00
2018-12-16T11:00:46.511Z,0.00
2018-12-16T11:03:14.626Z,-0.10
2018-12-16T11:05:42.848Z,-0.10
2018-12-16T11:08:11.028Z,-0.20
2018-12-16T11:10:39.166Z,-0.20
2018-12-16T11:13:07.955Z,-0.20
2018-12-16T11:15:36.104Z,-0.20
2018-12-16T11:18:04.436Z,-0.20
2018-12-16T11:20:32.549Z,-0.20
2018-12-16T11:23:00.655Z,-0.20
2018-12-16T11:25:29.004Z,-0.10
2018-12-16T11:27:57.435Z,-0.10
2018-12-16T11:30:25.553Z,-0.10
2018-12-16T11:32:53.665Z,0.00
2018-12-16T11:35:21.843Z,-0.10
2018-12-16T11:37:49.965Z,0.00
2018-12-16T11:40:18.098Z,0.20
2018-12-16T11:42:46.205Z,0.20
2018-12-16T11:45:14.461Z,0.30
2018-12-16T11:47:42.623Z,0.20
2018-12-16T11:50:10.739Z,0.30
2018-12-16T11:52:38.884Z,0.50
2018-12-16T11:55:12.690Z,0.50
2018-12-16T11:57:37.353Z,0.50
2018-12-16T12:00:07.272Z,0.60
2018-12-16T12:02:35.390Z,0.60
2018-12-16T12:05:05.051Z,0.60
2018-12-16T12:07:33.195Z,0.50
2018-12-16T12:10:01.342Z,0.40
2018-12-16T12:12:29.509Z,0.50
2018-12-16T12:14:57.735Z,0.50
2018-12-16T12:17:25.897Z,0.40
2018-12-16T12:19:54.034Z,0.40
2018-12-16T12:22:22.164Z,0.40
2018-12-16T12:24:50.302Z,0.40
2018-12-16T12:27:18.468Z,0.50
2018-12-16T12:29:46.601Z,0.60
2018-12-16T12:32:14.713Z,0.60
2018-12-16T12:34:42.854Z,0.70
2018-12-16T12:37:11.972Z,0.70
2018-12-16T12:42:14.718Z,0.70
2018-12-16T12:44:42.884Z,0.70
2018-12-16T12:47:11.002Z,0.80
2018-12-16T12:49:45.016Z,0.80
2018-12-16T12:52:09.321Z,0.70
2018-12-16T12:54:37.424Z,0.70
2018-12-16T12:57:05.548Z,0.60
2018-12-16T12:59:33.672Z,0.50
2018-12-16T13:02:01.830Z,0.50
2018-12-16T13:04:29.970Z,0.30
2018-12-16T13:06:58.105Z,0.20
2018-12-16T13:09:26.220Z,0.20
2018-12-16T13:11:54.357Z,0.30
2018-12-16T13:14:22.525Z,0.30
2018-12-16T13:16:50.673Z,0.30
2018-12-16T13:19:18.854Z,0.30
2018-12-16T13:21:46.970Z,0.40
2018-12-16T13:24:15.113Z,0.40
2018-12-16T13:26:43.269Z,0.40
2018-12-16T13:29:11.758Z,0.40
2018-12-16T13:31:39.898Z,0.30
2018-12-16T13:34:08.004Z,0.30
2018-12-16T13:36:36.143Z,0.40
2018-12-16T13:39:06.062Z,0.40
2018-12-16T13:41:34.206Z,0.40
2018-12-16T13:44:02.360Z,0.50
2018-12-16T13:46:30.484Z,0.40
2018-12-16T13:48:58.618Z,0.40
2018-12-16T13:51:26.758Z,0.40
2018-12-16T13:53:54.891Z,0.30
2018-12-16T13:56:22.997Z,0.30
2018-12-16T13:58:51.138Z,0.30
2018-12-16T14:01:19.308Z,0.30
2018-12-16T14:03:47.417Z,0.30
2018-12-16T14:06:15.630Z,0.30
2018-12-16T14:08:43.728Z,0.30
2018-12-16T14:11:11.872Z,0.30
2018-12-16T14:13:40.365Z,0.40
2018-12-16T14:16:08.653Z,0.50
2018-12-16T14:18:36.823Z,0.60
2018-12-16T14:21:05.076Z,0.50
2018-12-16T14:23:33.186Z,0.50
2018-12-16T14:26:01.580Z,0.40
2018-12-16T14:28:33.625Z,0.40
2018-12-16T14:31:02.037Z,0.30
2018-12-16T14:33:30.282Z,0.30
2018-12-16T14:35:58.494Z,0.20
2018-12-16T14:38:26.725Z,0.20
2018-12-16T14:40:55.867Z,0.20
2018-12-16T14:43:25.866Z,0.20
2018-12-16T14:45:54.201Z,0.20
2018-12-16T14:48:22.550Z,0.10
2018-12-16T14:50:51.846Z,0.10
2018-12-16T14:53:21.313Z,0.10
2018-12-16T14:55:55.173Z,0.10
2018-12-16T14:58:21.831Z,0.10
2018-12-16T15:00:51.234Z,0.10
2018-12-16T15:03:20.609Z,0.10
2018-12-16T15:05:50.055Z,0.10
2018-12-16T15:08:19.528Z,0.10
2018-12-16T15:10:48.878Z,0.10
2018-12-16T15:13:17.269Z,0.00
2018-12-16T15:15:45.612Z,0.10
2018-12-16T15:18:14.078Z,0.10
2018-12-16T15:20:44.228Z,0.10
2018-12-16T15:23:12.603Z,0.10
2018-12-16T15:25:41.792Z,0.10
2018-12-16T15:28:11.261Z,0.10
2018-12-16T15:30:41.322Z,0.10
2018-12-16T15:33:10.717Z,0.10
2018-12-16T15:35:40.113Z,0.10
2018-12-16T15:38:09.479Z,0.10
2018-12-16T15:40:39.220Z,0.10
2018-12-16T15:43:07.582Z,0.10
2018-12-16T15:45:35.949Z,0.10
2018-12-16T15:48:04.319Z,0.10
2018-12-16T15:50:32.674Z,0.10
2018-12-16T15:53:01.659Z,0.10
2018-12-16T15:55:30.062Z,0.10
2018-12-16T15:57:59.477Z,0.10
2018-12-16T16:00:28.821Z,0.10
2018-12-16T16:02:57.178Z,0.10
2018-12-16T16:05:25.545Z,0.20
2018-12-16T16:07:54.269Z,0.20
2018-12-16T16:10:23.134Z,0.20
2018-12-16T16:12:51.874Z,0.10
2018-12-16T16:15:21.350Z,0.10
2018-12-16T16:17:50.022Z,0.10
2018-12-16T16:20:19.491Z,0.10
2018-12-16T16:22:48.891Z,0.10
2018-12-16T16:25:17.256Z,0.20
2018-12-16T16:27:45.625Z,0.20
2018-12-16T16:30:14.082Z,0.20
2018-12-16T16:32:42.462Z,0.20
2018-12-16T16:35:11.705Z,0.20
2018-12-16T16:37:41.175Z,0.20
2018-12-16T16:40:10.014Z,0.20
2018-12-16T16:42:38.910Z,0.20
2018-12-16T16:45:07.366Z,0.20
2018-12-16T16:47:35.718Z,0.20
2018-12-16T16:50:05.465Z,0.20
2018-12-16T16:52:33.838Z,0.20
2018-12-16T16:55:02.302Z,0.20
2018-12-16T16:57:31.682Z,0.20
2018-12-16T17:00:01.255Z,0.20
2018-12-16T17:02:31.551Z,0.20
2018-12-16T17:05:01.160Z,0.20
2018-12-16T17:07:30.005Z,0.20
2018-12-16T17:09:59.478Z,0.30
2018-12-16T17:12:29.742Z,0.30
2018-12-16T17:14:58.810Z,0.20
2018-12-16T17:17:27.262Z,0.30
2018-12-16T17:19:55.630Z,0.30
2018-12-16T17:22:23.969Z,0.30
2018-12-16T17:24:52.340Z,0.30
2018-12-16T17:27:21.781Z,0.30
2018-12-16T17:29:51.141Z,0.30
2018-12-16T17:32:20.181Z,0.30
2018-12-16T17:34:49.277Z,0.30
2018-12-16T17:37:17.673Z,0.30
2018-12-16T17:39:46.042Z,0.30
2018-12-16T17:42:14.433Z,0.30
2018-12-16T17:44:42.793Z,0.30
2018-12-16T17:47:11.768Z,0.30
2018-12-16T17:49:41.226Z,0.30
2018-12-16T17:52:10.704Z,0.40
2018-12-16T17:54:40.080Z,0.40
2018-12-16T17:57:09.453Z,0.40
2018-12-16T17:59:38.797Z,0.40
2018-12-16T18:02:07.162Z,0.40
2018-12-16T18:04:35.535Z,0.40
2018-12-16T18:07:03.882Z,0.40
2018-12-16T18:09:32.250Z,0.40
2018-12-16T18:12:01.728Z,0.40
2018-12-16T18:14:30.799Z,0.40
2018-12-16T18:17:01.052Z,0.40
2018-12-16T18:19:30.721Z,0.40
2018-12-16T18:22:01.412Z,0.40
2018-12-16T18:24:29.999Z,0.40
2018-12-16T18:26:58.893Z,0.40
2018-12-16T18:29:27.267Z,0.40
2018-12-16T18:31:55.639Z,0.40
2018-12-16T18:34:23.987Z,0.40
2018-12-16T18:36:52.355Z,0.40
2018-12-16T18:39:21.132Z,0.40
2018-12-16T18:41:50.403Z,0.40
2018-12-16T18:44:19.445Z,0.40
2018-12-16T18:46:48.926Z,0.40
2018-12-16T18:49:17.303Z,0.50
2018-12-16T18:51:45.745Z,0.50
2018-12-16T18:54:14.137Z,0.50
2018-12-16T18:56:42.533Z,0.50
2018-12-16T18:59:11.706Z,0.50
2018-12-16T19:01:41.168Z,0.50
2018-12-16T19:04:11.749Z,0.60
2018-12-16T19:06:41.433Z,0.60
2018-12-16T19:09:10.942Z,0.60
2018-12-16T19:11:40.202Z,0.60
2018-12-16T19:14:09.710Z,0.60
2018-12-16T19:16:39.274Z,0.60
2018-12-16T19:19:07.943Z,0.60
2018-12-16T19:21:37.192Z,0.60
2018-12-16T19:24:06.956Z,0.70
2018-12-16T19:26:35.327Z,0.70
2018-12-16T19:29:03.687Z,0.80
2018-12-16T19:31:32.294Z,0.80
2018-12-16T19:34:03.087Z,0.80
2018-12-16T19:36:32.377Z,0.80
2018-12-16T19:39:02.306Z,0.80
2018-12-16T19:41:31.647Z,0.80
2018-12-16T19:44:00.611Z,0.80
2018-12-16T19:46:30.085Z,0.80
2018-12-16T19:48:59.444Z,0.80
2018-12-16T19:51:29.749Z,0.80
2018-12-16T19:53:58.980Z,0.80
2018-12-16T19:56:27.442Z,0.80
2018-12-16T19:58:56.001Z,0.80
2018-12-16T20:01:24.355Z,0.80
2018-12-16T20:03:58.331Z,0.80
2018-12-16T20:06:32.346Z,0.90
2018-12-16T20:09:02.599Z,0.90
2018-12-16T20:11:31.865Z,0.90
2018-12-16T20:14:02.441Z,1.00
2018-12-16T20:16:31.779Z,1.00
2018-12-16T20:19:01.122Z,1.00
2018-12-16T20:21:30.680Z,1.10
2018-12-16T20:24:00.051Z,1.10
2018-12-16T20:26:29.544Z,1.10
2018-12-16T20:28:58.885Z,1.10
2018-12-16T20:31:27.265Z,1.10
2018-12-16T20:33:55.614Z,1.10
2018-12-16T20:36:24.021Z,1.10
2018-12-16T20:38:52.373Z,1.10
2018-12-16T20:41:21.618Z,1.10
2018-12-16T20:43:50.615Z,1.10
2018-12-16T20:46:19.498Z,1.10
2018-12-16T20:48:49.222Z,1.10
2018-12-16T20:51:18.366Z,1.20
2018-12-16T20:53:46.710Z,1.20
2018-12-16T20:56:15.095Z,1.20
2018-12-16T20:58:43.487Z,1.20
2018-12-16T21:01:12.482Z,1.20
2018-12-16T21:03:41.704Z,1.20
2018-12-16T21:06:10.545Z,1.20
2018-12-16T21:08:40.153Z,1.20
2018-12-16T21:11:15.198Z,1.30
2018-12-16T21:13:49.425Z,1.30
2018-12-16T21:16:24.529Z,1.30
2018-12-16T21:18:53.098Z,1.30
2018-12-16T21:21:22.370Z,1.40
2018-12-16T21:23:51.729Z,1.40
2018-12-16T21:26:21.219Z,1.40
2018-12-16T21:28:50.061Z,1.40
2018-12-16T21:31:18.821Z,1.40
2018-12-16T21:33:47.202Z,1.40
2018-12-16T21:36:15.682Z,1.40
2018-12-16T21:38:44.021Z,1.40
2018-12-16T21:41:12.362Z,1.40
2018-12-16T21:43:41.759Z,1.40
2018-12-16T21:46:11.235Z,1.40
2018-12-16T21:48:40.125Z,1.40
2018-12-16T21:51:08.982Z,1.30
2018-12-16T21:53:37.327Z,1.40
2018-12-16T21:56:06.169Z,1.30
2018-12-16T21:58:34.510Z,1.30
2018-12-16T22:01:02.886Z,1.30
2018-12-16T22:03:33.334Z,1.40
2018-12-16T22:06:02.922Z,1.40
2018-12-16T22:08:32.371Z,1.40
2018-12-16T22:11:01.790Z,1.40
2018-12-16T22:13:31.174Z,1.30
2018-12-16T22:16:00.673Z,1.30
2018-12-16T22:18:30.079Z,1.30
2018-12-16T22:20:59.537Z,1.30
2018-12-16T22:23:29.218Z,1.30
2018-12-16T22:25:57.633Z,1.30
2018-12-16T22:28:25.983Z,1.30
2018-12-16T22:30:54.349Z,1.30
2018-12-16T22:33:22.818Z,1.30
2018-12-16T22:35:52.273Z,1.30
2018-12-16T22:38:21.725Z,1.30
2018-12-16T22:40:51.314Z,1.30
2018-12-16T22:43:20.202Z,1.30
2018-12-16T22:45:49.488Z,1.30
2018-12-16T22:48:18.858Z,1.30
2018-12-16T22:50:47.326Z,1.30
2018-12-16T22:53:15.670Z,1.30
2018-12-16T22:55:44.005Z,1.30
2018-12-16T22:58:12.370Z,1.30
2018-12-16T23:00:47.623Z,1.30
2018-12-16T23:03:16.010Z,1.40
2018-12-16T23:05:44.392Z,1.40
2018-12-16T23:10:47.413Z,1.30
2018-12-16T23:13:15.789Z,1.30
2018-12-16T23:15:44.158Z,1.30
2018-12-16T23:18:12.852Z,1.30
2018-12-16T23:20:42.192Z,1.30
2018-12-16T23:23:11.153Z,1.30
2018-12-16T23:25:40.094Z,1.30
2018-12-16T23:28:09.461Z,1.30
2018-12-16T23:30:39.018Z,1.30
2018-12-16T23:33:07.366Z,1.30
2018-12-16T23:35:35.729Z,1.30
2018-12-16T23:38:04.089Z,1.30
2018-12-16T23:40:32.426Z,1.30
2018-12-16T23:43:01.685Z,1.30
2018-12-16T23:45:30.632Z,1.30
2018-12-16T23:48:00.198Z,1.30
2018-12-16T23:50:29.439Z,1.30
2018-12-16T23:52:58.881Z,1.30
2018-12-16T23:55:27.278Z,1.30
2018-12-16T23:58:00.990Z,1.30
